createdAt,value
2023-04-20T00:00:22.057Z,88006.00
2023-04-20T00:01:21.983Z,88004.00
2023-04-20T00:02:22.160Z,88004.00
2023-04-20T00:03:22.238Z,88000.00
2023-04-20T00:04:22.069Z,88000.00
2023-04-20T00:05:22.141Z,88000.00
2023-04-20T00:06:22.115Z,87998.00
2023-04-20T00:07:22.116Z,87998.00
2023-04-20T00:08:22.148Z,87996.00
2023-04-20T00:09:22.185Z,87992.00
2023-04-20T00:10:22.248Z,87992.00
2023-04-20T00:11:22.314Z,87990.00
2023-04-20T00:12:22.391Z,87980.00
2023-04-20T00:13:22.467Z,87978.00
2023-04-20T00:14:22.520Z,87980.00
2023-04-20T00:15:22.581Z,87976.00
2023-04-20T00:16:22.764Z,87978.00
2023-04-20T00:17:22.813Z,87978.00
2023-04-20T00:18:22.795Z,87978.00
2023-04-20T00:19:22.844Z,87976.00
2023-04-20T00:20:22.918Z,87974.00
2023-04-20T00:21:22.975Z,87974.00
2023-04-20T00:22:23.049Z,87972.00
2023-04-20T00:23:23.067Z,87972.00
2023-04-20T00:24:23.081Z,87968.00
2023-04-20T00:25:23.103Z,87966.00
2023-04-20T00:26:23.131Z,87968.00
2023-04-20T00:27:23.162Z,87966.00
2023-04-20T00:28:23.183Z,87966.00
2023-04-20T00:29:23.194Z,87966.00
2023-04-20T00:30:23.240Z,87966.00
2023-04-20T00:31:23.328Z,87964.00
2023-04-20T00:32:23.298Z,87964.00
2023-04-20T00:33:23.307Z,87962.00
2023-04-20T00:34:23.337Z,87960.00
2023-04-20T00:35:23.390Z,87958.00
2023-04-20T00:36:23.401Z,87956.00
2023-04-20T00:37:23.427Z,87954.00
2023-04-20T00:38:23.474Z,87952.00
2023-04-20T00:39:23.478Z,87950.00
2023-04-20T00:40:23.498Z,87948.00
2023-04-20T00:41:23.509Z,87948.00
2023-04-20T00:42:23.539Z,87944.00
2023-04-20T00:43:23.568Z,87942.00
2023-04-20T00:44:23.581Z,87942.00
2023-04-20T00:45:23.618Z,87944.00
2023-04-20T00:46:23.690Z,87946.00
2023-04-20T00:47:23.671Z,87942.00
2023-04-20T00:48:23.702Z,87944.00
2023-04-20T00:49:23.717Z,87942.00
2023-04-20T00:50:23.797Z,87944.00
2023-04-20T00:51:23.869Z,87942.00
2023-04-20T00:52:23.955Z,87938.00
2023-04-20T00:53:24.000Z,87936.00
2023-04-20T00:54:24.004Z,87936.00
2023-04-20T00:55:24.030Z,87932.00
2023-04-20T00:56:24.041Z,87928.00
2023-04-20T00:57:24.213Z,87930.00
2023-04-20T00:58:24.105Z,87927.00
2023-04-20T00:59:24.117Z,87925.00
2023-04-20T01:00:24.163Z,87921.00
2023-04-20T01:01:24.291Z,87921.00
2023-04-20T01:02:24.396Z,87921.00
2023-04-20T01:03:24.273Z,87919.00
2023-04-20T01:04:24.375Z,87921.00
2023-04-20T01:05:24.345Z,87921.00
2023-04-20T01:06:24.419Z,87919.00
2023-04-20T01:07:24.486Z,87921.00
2023-04-20T01:08:24.554Z,87919.00
2023-04-20T01:09:24.623Z,87919.00
2023-04-20T01:10:24.696Z,87919.00
2023-04-20T01:11:24.769Z,87919.00
2023-04-20T01:12:24.843Z,87917.00
2023-04-20T01:13:24.926Z,87919.00
2023-04-20T01:14:25.003Z,87917.00
2023-04-20T01:15:25.071Z,87917.00
2023-04-20T01:16:25.250Z,87915.00
2023-04-20T01:17:25.238Z,87915.00
2023-04-20T01:18:25.290Z,87915.00
2023-04-20T01:19:25.373Z,87915.00
2023-04-20T01:20:25.417Z,87917.00
2023-04-20T01:21:25.534Z,87915.00
2023-04-20T01:22:25.585Z,87915.00
2023-04-20T01:23:25.649Z,87915.00
2023-04-20T01:24:25.754Z,87915.00
2023-04-20T01:25:25.792Z,87913.00
2023-04-20T01:26:25.873Z,87913.00
2023-04-20T01:27:25.861Z,87909.00
2023-04-20T01:28:25.884Z,87907.00
2023-04-20T01:29:25.905Z,87905.00
2023-04-20T01:30:25.929Z,87901.00
2023-04-20T01:31:25.997Z,87903.00
2023-04-20T01:32:26.042Z,87905.00
2023-04-20T01:33:26.009Z,87905.00
2023-04-20T01:34:26.045Z,87899.00
2023-04-20T01:35:26.057Z,87901.00
2023-04-20T01:36:26.093Z,87903.00
2023-04-20T01:37:26.206Z,87901.00
2023-04-20T01:38:26.246Z,87903.00
2023-04-20T01:39:26.372Z,87903.00
2023-04-20T01:40:26.395Z,87903.00
2023-04-20T01:41:26.470Z,87903.00
2023-04-20T01:42:26.546Z,87901.00
2023-04-20T01:43:26.625Z,87901.00
2023-04-20T01:44:26.697Z,87899.00
2023-04-20T01:45:26.781Z,87897.00
2023-04-20T01:46:26.854Z,87895.00
2023-04-20T01:47:26.957Z,87897.00
2023-04-20T01:48:26.970Z,87899.00
2023-04-20T01:49:27.103Z,87899.00
2023-04-20T01:50:27.114Z,87899.00
2023-04-20T01:51:27.205Z,87901.00
2023-04-20T01:52:27.270Z,87899.00
2023-04-20T01:53:27.366Z,87899.00
2023-04-20T01:54:27.411Z,87899.00
2023-04-20T01:55:27.484Z,87897.00
2023-04-20T01:56:27.557Z,87897.00
2023-04-20T01:57:27.631Z,87893.00
2023-04-20T01:58:27.652Z,87891.00
2023-04-20T01:59:27.683Z,87893.00
2023-04-20T02:00:27.699Z,87891.00
2023-04-20T02:01:27.744Z,87889.00
2023-04-20T02:02:27.862Z,87887.00
2023-04-20T02:03:27.986Z,87887.00
2023-04-20T02:04:27.777Z,87889.00
2023-04-20T02:05:27.808Z,87889.00
2023-04-20T02:06:27.861Z,87891.00
2023-04-20T02:07:27.845Z,87891.00
2023-04-20T02:08:27.905Z,87891.00
2023-04-20T02:09:27.968Z,87889.00
2023-04-20T02:10:28.036Z,87887.00
2023-04-20T02:11:28.103Z,87887.00
2023-04-20T02:12:28.185Z,87883.00
2023-04-20T02:13:28.246Z,87883.00
2023-04-20T02:14:28.325Z,87885.00
2023-04-20T02:15:28.397Z,87883.00
2023-04-20T02:16:28.506Z,87881.00
2023-04-20T02:17:28.587Z,87883.00
2023-04-20T02:18:28.633Z,87881.00
2023-04-20T02:19:28.692Z,87881.00
2023-04-20T02:20:28.785Z,87883.00
2023-04-20T02:21:28.854Z,87883.00
2023-04-20T02:22:28.949Z,87885.00
2023-04-20T02:23:29.022Z,87885.00
2023-04-20T02:24:29.098Z,87883.00
2023-04-20T02:25:29.173Z,87881.00
2023-04-20T02:26:29.248Z,87881.00
2023-04-20T02:27:29.331Z,87880.00
2023-04-20T02:28:29.396Z,87881.00
2023-04-20T02:29:29.498Z,87881.00
2023-04-20T02:30:29.555Z,87881.00
2023-04-20T02:31:29.629Z,87881.00
2023-04-20T02:32:29.730Z,87883.00
2023-04-20T02:33:29.814Z,87883.00
2023-04-20T02:34:29.878Z,87880.00
2023-04-20T02:35:29.956Z,87880.00
2023-04-20T02:36:30.032Z,87878.00
2023-04-20T02:37:30.080Z,87874.00
2023-04-20T02:38:30.156Z,87872.00
2023-04-20T02:39:30.247Z,87872.00
2023-04-20T02:40:30.303Z,87872.00
2023-04-20T02:41:30.370Z,87872.00
2023-04-20T02:42:30.482Z,87870.00
2023-04-20T02:43:30.433Z,87872.00
2023-04-20T02:44:30.445Z,87870.00
2023-04-20T02:45:30.477Z,87864.00
2023-04-20T02:46:30.499Z,87860.00
2023-04-20T02:47:30.555Z,87860.00
2023-04-20T02:48:30.549Z,87860.00
2023-04-20T02:49:30.570Z,87862.00
2023-04-20T02:50:30.599Z,87858.00
2023-04-20T02:51:30.609Z,87856.00
2023-04-20T02:52:30.652Z,87854.00
2023-04-20T02:53:30.716Z,87854.00
2023-04-20T02:54:30.793Z,87852.00
2023-04-20T02:55:30.812Z,87856.00
2023-04-20T02:56:30.856Z,87856.00
2023-04-20T02:57:30.863Z,87852.00
2023-04-20T02:58:30.911Z,87852.00
2023-04-20T02:59:30.904Z,87848.00
2023-04-20T03:00:30.935Z,87846.00
2023-04-20T03:01:30.985Z,87846.00
2023-04-20T03:02:31.105Z,87844.00
2023-04-20T03:03:31.144Z,87844.00
2023-04-20T03:04:31.170Z,87844.00
2023-04-20T03:05:31.089Z,87838.00
2023-04-20T03:06:31.110Z,87840.00
2023-04-20T03:07:31.140Z,87838.00
2023-04-20T03:08:31.173Z,87840.00
2023-04-20T03:09:31.211Z,87840.00
2023-04-20T03:10:31.262Z,87840.00
2023-04-20T03:11:31.341Z,87840.00
2023-04-20T03:12:31.368Z,87842.00
2023-04-20T03:13:31.401Z,87838.00
2023-04-20T03:14:31.437Z,87836.00
2023-04-20T03:15:31.460Z,87836.00
2023-04-20T03:16:31.517Z,87832.00
2023-04-20T03:17:31.600Z,87836.00
2023-04-20T03:18:31.574Z,87834.00
2023-04-20T03:19:31.589Z,87834.00
2023-04-20T03:20:31.631Z,87832.00
2023-04-20T03:21:31.657Z,87830.00
2023-04-20T03:22:31.696Z,87830.00
2023-04-20T03:23:31.730Z,87830.00
2023-04-20T03:24:31.766Z,87832.00
2023-04-20T03:25:31.784Z,87828.00
2023-04-20T03:26:31.816Z,87826.00
2023-04-20T03:27:31.837Z,87828.00
2023-04-20T03:28:31.887Z,87830.00
2023-04-20T03:29:31.913Z,87828.00
2023-04-20T03:30:31.944Z,87828.00
2023-04-20T03:31:31.992Z,87823.00
2023-04-20T03:32:32.839Z,87819.00
2023-04-20T03:33:32.045Z,87821.00
2023-04-20T03:34:32.050Z,87819.00
2023-04-20T03:35:32.113Z,87817.00
2023-04-20T03:36:32.130Z,87817.00
2023-04-20T03:37:32.148Z,87815.00
2023-04-20T03:38:32.198Z,87813.00
2023-04-20T03:39:32.212Z,87813.00
2023-04-20T03:40:32.268Z,87813.00
2023-04-20T03:41:32.376Z,87815.00
2023-04-20T03:42:32.314Z,87815.00
2023-04-20T03:43:32.350Z,87817.00
2023-04-20T03:44:32.371Z,87811.00
2023-04-20T03:45:32.444Z,87809.00
2023-04-20T03:46:32.452Z,87807.00
2023-04-20T03:47:32.506Z,87807.00
2023-04-20T03:48:32.507Z,87807.00
2023-04-20T03:49:32.536Z,87805.00
2023-04-20T03:50:32.560Z,87801.00
2023-04-20T03:51:32.631Z,87803.00
2023-04-20T03:52:32.670Z,87801.00
2023-04-20T03:53:32.731Z,87801.00
2023-04-20T03:54:32.792Z,87801.00
2023-04-20T03:55:32.862Z,87795.00
2023-04-20T03:56:32.938Z,87793.00
2023-04-20T03:57:33.001Z,87791.00
2023-04-20T03:58:33.097Z,87795.00
2023-04-20T03:59:33.135Z,87791.00
2023-04-20T04:00:33.206Z,87791.00
2023-04-20T04:01:33.285Z,87791.00
2023-04-20T04:02:34.139Z,87789.00
2023-04-20T04:03:33.576Z,87789.00
2023-04-20T04:04:33.673Z,87787.00
2023-04-20T04:05:33.541Z,87787.00
2023-04-20T04:06:33.501Z,87781.00
2023-04-20T04:07:33.522Z,87785.00
2023-04-20T04:08:33.565Z,87785.00
2023-04-20T04:09:33.622Z,87785.00
2023-04-20T04:10:33.652Z,87785.00
2023-04-20T04:11:33.700Z,87783.00
2023-04-20T04:12:33.728Z,87785.00
2023-04-20T04:13:34.815Z,87783.00
2023-04-20T04:14:33.841Z,87783.00
2023-04-20T04:15:33.885Z,87779.00
2023-04-20T04:16:33.975Z,87779.00
2023-04-20T04:17:33.970Z,87781.00
2023-04-20T04:18:33.999Z,87781.00
2023-04-20T04:19:34.076Z,87783.00
2023-04-20T04:20:34.165Z,87787.00
2023-04-20T04:21:34.257Z,87789.00
2023-04-20T04:22:34.294Z,87783.00
2023-04-20T04:23:34.355Z,87781.00
2023-04-20T04:24:34.371Z,87783.00
2023-04-20T04:25:34.429Z,87781.00
2023-04-20T04:26:34.464Z,87783.00
2023-04-20T04:27:34.507Z,87787.00
2023-04-20T04:28:34.549Z,87787.00
2023-04-20T04:29:34.578Z,87785.00
2023-04-20T04:30:34.622Z,87781.00
2023-04-20T04:31:34.703Z,87781.00
2023-04-20T04:32:34.751Z,87781.00
2023-04-20T04:33:34.733Z,87781.00
2023-04-20T04:34:34.846Z,87783.00
2023-04-20T04:35:34.937Z,87783.00
2023-04-20T04:36:35.000Z,87783.00
2023-04-20T04:37:35.093Z,87783.00
2023-04-20T04:38:35.204Z,87781.00
2023-04-20T04:39:35.287Z,87785.00
2023-04-20T04:40:35.384Z,87785.00
2023-04-20T04:41:35.478Z,87787.00
2023-04-20T04:42:35.579Z,87787.00
2023-04-20T04:43:35.685Z,87787.00
2023-04-20T04:44:35.765Z,87787.00
2023-04-20T04:45:35.876Z,87787.00
2023-04-20T04:46:36.026Z,87785.00
2023-04-20T04:47:36.113Z,87785.00
2023-04-20T04:48:36.176Z,87787.00
2023-04-20T04:49:36.273Z,87787.00
2023-04-20T04:50:36.379Z,87787.00
2023-04-20T04:51:36.472Z,87791.00
2023-04-20T04:52:36.551Z,87797.00
2023-04-20T04:53:36.665Z,87795.00
2023-04-20T04:54:36.758Z,87795.00
2023-04-20T04:55:36.864Z,87795.00
2023-04-20T04:56:36.943Z,87793.00
2023-04-20T04:57:37.046Z,87791.00
2023-04-20T04:58:37.147Z,87791.00
2023-04-20T04:59:37.227Z,87793.00
2023-04-20T05:00:37.324Z,87793.00
2023-04-20T05:01:37.447Z,87793.00
2023-04-20T05:02:37.753Z,87791.00
2023-04-20T05:03:37.678Z,87787.00
2023-04-20T05:04:37.748Z,87787.00
2023-04-20T05:05:37.711Z,87787.00
2023-04-20T05:06:37.794Z,87787.00
2023-04-20T05:07:37.863Z,87787.00
2023-04-20T05:08:37.935Z,87791.00
2023-04-20T05:09:37.997Z,87795.00
2023-04-20T05:10:38.062Z,87793.00
2023-04-20T05:11:38.125Z,87793.00
2023-04-20T05:12:38.196Z,87793.00
2023-04-20T05:13:38.284Z,87791.00
2023-04-20T05:14:38.312Z,87795.00
2023-04-20T05:15:38.347Z,87795.00
2023-04-20T05:16:38.425Z,87797.00
2023-04-20T05:17:38.406Z,87795.00
2023-04-20T05:18:38.424Z,87797.00
2023-04-20T05:19:38.456Z,87795.00
2023-04-20T05:20:38.578Z,87799.00
2023-04-20T05:21:38.553Z,87801.00
2023-04-20T05:22:38.582Z,87803.00
2023-04-20T05:23:38.626Z,87799.00
2023-04-20T05:24:38.630Z,87797.00
2023-04-20T05:25:38.663Z,87801.00
2023-04-20T05:26:38.703Z,87795.00
2023-04-20T05:27:38.739Z,87793.00
2023-04-20T05:28:38.778Z,87795.00
2023-04-20T05:29:38.829Z,87795.00
2023-04-20T05:30:38.896Z,87795.00
2023-04-20T05:31:38.947Z,87795.00
2023-04-20T05:32:38.992Z,87797.00
2023-04-20T05:33:38.963Z,87793.00
2023-04-20T05:34:38.988Z,87793.00
2023-04-20T05:35:39.026Z,87795.00
2023-04-20T05:36:39.077Z,87797.00
2023-04-20T05:37:39.146Z,87805.00
2023-04-20T05:38:39.228Z,87799.00
2023-04-20T05:39:39.298Z,87799.00
2023-04-20T05:40:39.377Z,87797.00
2023-04-20T05:41:39.449Z,87793.00
2023-04-20T05:42:39.529Z,87793.00
2023-04-20T05:43:39.610Z,87795.00
2023-04-20T05:44:39.690Z,87793.00
2023-04-20T05:45:39.805Z,87795.00
2023-04-20T05:46:39.852Z,87793.00
2023-04-20T05:47:39.984Z,87797.00
2023-04-20T05:48:40.053Z,87793.00
2023-04-20T05:49:40.157Z,87793.00
2023-04-20T05:50:40.221Z,87789.00
2023-04-20T05:51:40.308Z,87785.00
2023-04-20T05:52:40.352Z,87785.00
2023-04-20T05:53:40.373Z,87787.00
2023-04-20T05:54:40.413Z,87787.00
2023-04-20T05:55:40.465Z,87783.00
2023-04-20T05:56:40.487Z,87783.00
2023-04-20T05:57:40.524Z,87779.00
2023-04-20T05:58:40.562Z,87781.00
2023-04-20T05:59:40.611Z,87781.00
2023-04-20T06:00:40.652Z,87781.00
2023-04-20T06:01:40.693Z,87779.00
2023-04-20T06:02:40.904Z,87779.00
2023-04-20T06:03:41.049Z,87783.00
2023-04-20T06:04:41.007Z,87785.00
2023-04-20T06:05:41.046Z,87785.00
2023-04-20T06:06:40.903Z,87787.00
2023-04-20T06:07:40.983Z,87791.00
2023-04-20T06:08:40.986Z,87787.00
2023-04-20T06:09:41.039Z,87787.00
2023-04-20T06:10:41.111Z,87787.00
2023-04-20T06:11:55.818Z,87787.00
2023-04-20T06:12:41.181Z,87785.00
2023-04-20T06:13:41.190Z,87783.00
2023-04-20T06:14:41.215Z,87785.00
2023-04-20T06:15:41.374Z,87787.00
2023-04-20T06:16:41.312Z,87783.00
2023-04-20T06:17:41.651Z,87785.00
2023-04-20T06:18:41.372Z,87785.00
2023-04-20T06:19:41.412Z,87785.00
2023-04-20T06:20:41.477Z,87783.00
2023-04-20T06:21:41.492Z,87781.00
2023-04-20T06:22:41.531Z,87781.00
2023-04-20T06:23:41.592Z,87781.00
2023-04-20T06:24:41.605Z,87783.00
2023-04-20T06:25:41.667Z,87781.00
2023-04-20T06:26:41.689Z,87785.00
2023-04-20T06:27:41.738Z,87787.00
2023-04-20T06:28:41.786Z,87787.00
2023-04-20T06:29:41.861Z,87783.00
2023-04-20T06:30:41.875Z,87785.00
2023-04-20T06:31:41.947Z,87785.00
2023-04-20T06:32:42.031Z,87787.00
2023-04-20T06:33:41.962Z,87783.00
2023-04-20T06:34:41.999Z,87785.00
2023-04-20T06:35:42.018Z,87787.00
2023-04-20T06:36:42.059Z,87787.00
2023-04-20T06:37:42.113Z,87789.00
2023-04-20T06:38:42.144Z,87787.00
2023-04-20T06:39:42.193Z,87791.00
2023-04-20T06:40:42.210Z,87785.00
2023-04-20T06:41:42.270Z,87787.00
2023-04-20T06:42:42.312Z,87785.00
2023-04-20T06:43:42.408Z,87785.00
2023-04-20T06:44:42.491Z,87785.00
2023-04-20T06:45:42.586Z,87785.00
2023-04-20T06:46:42.663Z,87783.00
2023-04-20T06:47:42.684Z,87783.00
2023-04-20T06:48:42.724Z,87785.00
2023-04-20T06:49:42.761Z,87781.00
2023-04-20T06:50:42.785Z,87783.00
2023-04-20T06:51:42.842Z,87779.00
2023-04-20T06:52:42.866Z,87781.00
2023-04-20T06:53:42.962Z,87778.00
2023-04-20T06:54:42.956Z,87776.00
2023-04-20T06:55:43.047Z,87776.00
2023-04-20T06:56:43.109Z,87772.00
2023-04-20T06:57:43.223Z,87772.00
2023-04-20T06:58:43.334Z,87768.00
2023-04-20T06:59:43.454Z,87768.00
2023-04-20T07:00:43.547Z,87768.00
2023-04-20T07:01:43.667Z,87766.00
2023-04-20T07:02:43.779Z,87768.00
2023-04-20T07:03:43.948Z,87766.00
2023-04-20T07:04:43.774Z,87766.00
2023-04-20T07:05:43.780Z,87770.00
2023-04-20T07:06:43.811Z,87766.00
2023-04-20T07:07:43.878Z,87766.00
2023-04-20T07:08:43.893Z,87764.00
2023-04-20T07:09:44.172Z,87766.00
2023-04-20T07:10:43.986Z,87766.00
2023-04-20T07:11:44.019Z,87766.00
2023-04-20T07:12:44.327Z,87768.00
2023-04-20T07:13:44.132Z,87768.00
2023-04-20T07:14:44.168Z,87766.00
2023-04-20T07:15:44.256Z,87764.00
2023-04-20T07:16:44.407Z,87772.00
2023-04-20T07:17:44.491Z,87768.00
2023-04-20T07:18:44.602Z,87768.00
2023-04-20T07:19:44.692Z,87766.00
2023-04-20T07:20:44.795Z,87768.00
2023-04-20T07:21:44.883Z,87770.00
2023-04-20T07:22:44.953Z,87772.00
2023-04-20T07:23:45.380Z,87770.00
2023-04-20T07:24:45.165Z,87772.00
2023-04-20T07:25:45.282Z,87770.00
2023-04-20T07:26:45.381Z,87770.00
2023-04-20T07:27:45.573Z,87770.00
2023-04-20T07:28:45.605Z,87770.00
2023-04-20T07:29:45.666Z,87770.00
2023-04-20T07:30:45.719Z,87770.00
2023-04-20T07:31:45.808Z,87766.00
2023-04-20T07:32:45.878Z,87764.00
2023-04-20T07:33:45.896Z,87766.00
2023-04-20T07:34:45.906Z,87766.00
2023-04-20T07:35:45.951Z,87764.00
2023-04-20T07:36:45.997Z,87764.00
2023-04-20T07:37:46.086Z,87762.00
2023-04-20T07:38:46.101Z,87762.00
2023-04-20T07:39:46.089Z,87764.00
2023-04-20T07:40:46.125Z,87762.00
2023-04-20T07:41:46.177Z,87762.00
2023-04-20T07:42:46.199Z,87764.00
2023-04-20T07:43:46.246Z,87766.00
2023-04-20T07:44:46.329Z,87768.00
2023-04-20T07:45:46.416Z,87766.00
2023-04-20T07:46:46.476Z,87766.00
2023-04-20T07:47:46.627Z,87766.00
2023-04-20T07:48:46.667Z,87766.00
2023-04-20T07:49:46.763Z,87766.00
2023-04-20T07:50:46.837Z,87766.00
2023-04-20T07:51:46.912Z,87764.00
2023-04-20T07:52:46.977Z,87760.00
2023-04-20T07:53:47.072Z,87762.00
2023-04-20T07:54:47.196Z,87762.00
2023-04-20T07:55:48.578Z,87762.00
2023-04-20T07:56:47.473Z,87764.00
2023-04-20T07:57:47.400Z,87764.00
2023-04-20T07:58:47.433Z,87760.00
2023-04-20T07:59:47.445Z,87764.00
2023-04-20T08:00:47.489Z,87762.00
2023-04-20T08:01:47.524Z,87760.00
2023-04-20T08:02:47.660Z,87758.00
2023-04-20T08:03:47.743Z,87762.00
2023-04-20T08:04:47.784Z,87764.00
2023-04-20T08:05:47.691Z,87762.00
2023-04-20T08:06:47.697Z,87762.00
2023-04-20T08:07:48.496Z,87764.00
2023-04-20T08:08:47.815Z,87760.00
2023-04-20T08:09:47.855Z,87764.00
2023-04-20T08:10:47.958Z,87762.00
2023-04-20T08:11:48.075Z,87764.00
2023-04-20T08:12:50.454Z,87764.00
2023-04-20T08:13:48.155Z,87762.00
2023-04-20T08:14:48.236Z,87760.00
2023-04-20T08:15:48.282Z,87764.00
2023-04-20T08:16:48.296Z,87756.00
2023-04-20T08:17:48.364Z,87760.00
2023-04-20T08:18:48.378Z,87758.00
2023-04-20T08:19:48.361Z,87752.00
2023-04-20T08:20:48.388Z,87756.00
2023-04-20T08:21:48.467Z,87752.00
2023-04-20T08:22:48.471Z,87750.00
2023-04-20T08:23:48.489Z,87746.00
2023-04-20T08:24:48.544Z,87748.00
2023-04-20T08:25:48.563Z,87750.00
2023-04-20T08:26:48.600Z,87740.00
2023-04-20T08:27:48.623Z,87738.00
2023-04-20T08:28:48.733Z,87750.00
2023-04-20T08:29:48.694Z,87744.00
2023-04-20T08:30:48.767Z,87744.00
2023-04-20T08:31:50.008Z,87746.00
2023-04-20T08:32:48.883Z,87740.00
2023-04-20T08:33:48.846Z,87744.00
2023-04-20T08:34:48.868Z,87736.00
2023-04-20T08:35:48.881Z,87738.00
2023-04-20T08:36:48.950Z,87742.00
2023-04-20T08:37:48.944Z,87738.00
2023-04-20T08:38:49.049Z,87740.00
2023-04-20T08:39:49.047Z,87742.00
2023-04-20T08:40:49.065Z,87748.00
2023-04-20T08:41:49.084Z,87746.00
2023-04-20T08:42:49.113Z,87746.00
2023-04-20T08:43:49.163Z,87754.00
2023-04-20T08:44:49.249Z,87752.00
2023-04-20T08:45:49.268Z,87748.00
2023-04-20T08:46:49.312Z,87750.00
2023-04-20T08:47:49.338Z,87754.00
2023-04-20T08:48:49.381Z,87756.00
2023-04-20T08:49:49.421Z,87756.00
2023-04-20T08:50:49.441Z,87754.00
2023-04-20T08:51:49.455Z,87754.00
2023-04-20T08:52:49.490Z,87754.00
2023-04-20T08:53:49.520Z,87752.00
2023-04-20T08:54:56.578Z,87752.00
2023-04-20T08:55:50.608Z,87752.00
2023-04-20T08:56:49.632Z,87754.00
2023-04-20T08:57:49.650Z,87748.00
2023-04-20T08:58:49.711Z,87752.00
2023-04-20T08:59:49.713Z,87754.00
2023-04-20T09:00:49.798Z,87756.00
2023-04-20T09:01:49.803Z,87758.00
2023-04-20T09:02:49.921Z,87754.00
2023-04-20T09:03:50.008Z,87754.00
2023-04-20T09:04:50.008Z,87756.00
2023-04-20T09:05:49.922Z,87752.00
2023-04-20T09:06:49.969Z,87754.00
2023-04-20T09:07:49.994Z,87760.00
2023-04-20T09:08:50.003Z,87758.00
2023-04-20T09:09:50.040Z,87760.00
2023-04-20T09:10:50.085Z,87762.00
2023-04-20T09:11:50.089Z,87756.00
2023-04-20T09:12:50.126Z,87758.00
2023-04-20T09:13:50.139Z,87762.00
2023-04-20T09:14:50.167Z,87760.00
2023-04-20T09:15:50.245Z,87764.00
2023-04-20T09:16:50.430Z,87760.00
2023-04-20T09:17:50.330Z,87758.00
2023-04-20T09:18:50.314Z,87768.00
2023-04-20T09:19:50.379Z,87758.00
2023-04-20T09:20:50.391Z,87758.00
2023-04-20T09:21:50.463Z,87762.00
2023-04-20T09:22:50.483Z,87764.00
2023-04-20T09:23:51.323Z,87762.00
2023-04-20T09:24:50.679Z,87762.00
2023-04-20T09:25:50.564Z,87762.00
2023-04-20T09:26:50.561Z,87760.00
2023-04-20T09:27:50.632Z,87754.00
2023-04-20T09:28:50.669Z,87756.00
2023-04-20T09:29:50.640Z,87756.00
2023-04-20T09:30:50.689Z,87748.00
2023-04-20T09:31:50.747Z,87746.00
2023-04-20T09:32:50.813Z,87748.00
2023-04-20T09:33:50.739Z,87742.00
2023-04-20T09:34:50.786Z,87744.00
2023-04-20T09:35:50.799Z,87744.00
2023-04-20T09:36:50.872Z,87746.00
2023-04-20T09:37:50.852Z,87744.00
2023-04-20T09:38:50.894Z,87746.00
2023-04-20T09:39:51.042Z,87746.00
2023-04-20T09:40:50.913Z,87746.00
2023-04-20T09:41:50.949Z,87744.00
2023-04-20T09:42:50.997Z,87744.00
2023-04-20T09:43:51.191Z,87744.00
2023-04-20T09:44:51.015Z,87746.00
2023-04-20T09:45:51.080Z,87748.00
2023-04-20T09:46:51.064Z,87744.00
2023-04-20T09:47:51.255Z,87746.00
2023-04-20T09:48:51.226Z,87744.00
2023-04-20T09:49:51.314Z,87754.00
2023-04-20T09:50:51.929Z,87740.00
2023-04-20T09:51:51.486Z,87742.00
2023-04-20T09:52:51.576Z,87744.00
2023-04-20T09:53:52.829Z,87754.00
2023-04-20T09:54:51.753Z,87746.00
2023-04-20T09:55:51.978Z,87746.00
2023-04-20T09:56:51.915Z,87740.00
2023-04-20T09:57:51.921Z,87738.00
2023-04-20T09:58:51.960Z,87736.00
2023-04-20T09:59:53.301Z,87732.00
2023-04-20T10:00:52.049Z,87732.00
2023-04-20T10:01:52.039Z,87734.00
2023-04-20T10:02:52.219Z,87738.00
2023-04-20T10:03:52.196Z,87732.00
2023-04-20T10:04:52.108Z,87734.00
2023-04-20T10:05:53.590Z,87736.00
2023-04-20T10:06:52.138Z,87734.00
2023-04-20T10:07:52.116Z,87734.00
2023-04-20T10:08:52.152Z,87723.00
2023-04-20T10:09:52.168Z,87723.00
2023-04-20T10:10:52.176Z,87721.00
2023-04-20T10:11:53.863Z,87721.00
2023-04-20T10:12:52.270Z,87723.00
2023-04-20T10:13:52.294Z,87725.00
2023-04-20T10:14:52.265Z,87723.00
2023-04-20T10:15:52.280Z,87721.00
2023-04-20T10:16:52.416Z,87725.00
2023-04-20T10:17:52.353Z,87719.00
2023-04-20T10:18:52.409Z,87719.00
2023-04-20T10:19:52.366Z,87725.00
2023-04-20T10:20:52.369Z,87738.00
2023-04-20T10:21:52.408Z,87736.00
2023-04-20T10:22:52.437Z,87740.00
2023-04-20T10:23:52.436Z,87725.00
2023-04-20T10:24:52.481Z,87725.00
2023-04-20T10:25:52.471Z,87736.00
2023-04-20T10:26:52.517Z,87732.00
2023-04-20T10:27:52.514Z,87736.00
2023-04-20T10:28:52.533Z,87738.00
2023-04-20T10:29:52.561Z,87736.00
2023-04-20T10:30:52.693Z,87732.00
2023-04-20T10:31:52.611Z,87723.00
2023-04-20T10:32:52.650Z,87738.00
2023-04-20T10:33:52.661Z,87742.00
2023-04-20T10:34:52.700Z,87734.00
2023-04-20T10:35:52.682Z,87723.00
2023-04-20T10:36:52.707Z,87723.00
2023-04-20T10:37:52.738Z,87738.00
2023-04-20T10:38:52.759Z,87721.00
2023-04-20T10:39:52.797Z,87719.00
2023-04-20T10:40:52.786Z,87718.00
2023-04-20T10:41:52.846Z,87716.00
2023-04-20T10:42:52.849Z,87732.00
2023-04-20T10:43:52.829Z,87732.00
2023-04-20T10:44:52.877Z,87725.00
2023-04-20T10:45:52.927Z,87719.00
2023-04-20T10:46:52.959Z,87721.00
2023-04-20T10:47:53.027Z,87721.00
2023-04-20T10:48:52.886Z,87721.00
2023-04-20T10:49:52.963Z,87721.00
2023-04-20T10:50:53.006Z,87723.00
2023-04-20T10:51:54.470Z,87719.00
2023-04-20T10:52:53.084Z,87716.00
2023-04-20T10:53:53.060Z,87716.00
2023-04-20T10:54:53.098Z,87714.00
2023-04-20T10:55:53.106Z,87710.00
2023-04-20T10:56:53.166Z,87710.00
2023-04-20T10:57:53.166Z,87710.00
2023-04-20T10:58:53.158Z,87712.00
2023-04-20T10:59:53.202Z,87708.00
2023-04-20T11:00:53.201Z,87710.00
2023-04-20T11:01:53.263Z,87708.00
2023-04-20T11:02:53.298Z,87706.00
2023-04-20T11:03:53.386Z,87708.00
2023-04-20T11:04:53.360Z,87706.00
2023-04-20T11:05:53.303Z,87710.00
2023-04-20T11:06:53.326Z,87708.00
2023-04-20T11:07:53.323Z,87702.00
2023-04-20T11:08:53.358Z,87702.00
2023-04-20T11:09:53.371Z,87704.00
2023-04-20T11:10:53.369Z,87706.00
2023-04-20T11:11:53.411Z,87708.00
2023-04-20T11:12:53.417Z,87706.00
2023-04-20T11:13:53.445Z,87704.00
2023-04-20T11:14:53.434Z,87702.00
2023-04-20T11:15:53.470Z,87698.00
2023-04-20T11:16:53.627Z,87700.00
2023-04-20T11:17:53.534Z,87700.00
2023-04-20T11:18:53.503Z,87698.00
2023-04-20T11:19:53.508Z,87708.00
2023-04-20T11:20:53.539Z,87708.00
2023-04-20T11:21:53.557Z,87704.00
2023-04-20T11:22:54.842Z,87702.00
2023-04-20T11:23:53.570Z,87704.00
2023-04-20T11:24:53.597Z,87702.00
2023-04-20T11:25:53.630Z,87700.00
2023-04-20T11:26:53.660Z,87700.00
2023-04-20T11:27:53.662Z,87700.00
2023-04-20T11:28:55.183Z,87700.00
2023-04-20T11:29:53.678Z,87704.00
2023-04-20T11:30:53.710Z,87704.00
2023-04-20T11:31:53.802Z,87706.00
2023-04-20T11:32:53.838Z,87702.00
2023-04-20T11:33:53.835Z,87702.00
2023-04-20T11:35:03.375Z,87700.00
2023-04-20T11:35:54.844Z,87700.00
2023-04-20T11:36:53.844Z,87698.00
2023-04-20T11:37:53.853Z,87694.00
2023-04-20T11:38:53.893Z,87698.00
2023-04-20T11:39:54.038Z,87698.00
2023-04-20T11:40:53.910Z,87696.00
2023-04-20T11:41:53.932Z,87694.00
2023-04-20T11:42:53.948Z,87702.00
2023-04-20T11:43:53.956Z,87696.00
2023-04-20T11:44:53.972Z,87694.00